sensor_id;sensor_type;location;lat;lon;timestamp;temperature;humidity
17697;DHT22;8967;47.984;7.842;2023-03-01T00:01:37;1.00;94.40
17697;DHT22;8967;47.984;7.842;2023-03-01T00:04:04;1.00;94.40
17697;DHT22;8967;47.984;7.842;2023-03-01T00:06:31;1.00;94.40
17697;DHT22;8967;47.984;7.842;2023-03-01T00:08:58;1.00;94.50
17697;DHT22;8967;47.984;7.842;2023-03-01T00:11:26;1.00;94.60
17697;DHT22;8967;47.984;7.842;2023-03-01T00:13:55;1.00;94.70
17697;DHT22;8967;47.984;7.842;2023-03-01T00:16:25;1.00;94.60
17697;DHT22;8967;47.984;7.842;2023-03-01T00:18:55;0.90;94.60
17697;DHT22;8967;47.984;7.842;2023-03-01T00:21:23;0.90;94.60
17697;DHT22;8967;47.984;7.842;2023-03-01T00:23:52;0.90;94.60
17697;DHT22;8967;47.984;7.842;2023-03-01T00:26:21;0.90;94.70
17697;DHT22;8967;47.984;7.842;2023-03-01T00:28:49;0.90;94.70
17697;DHT22;8967;47.984;7.842;2023-03-01T00:31:17;0.90;94.70
17697;DHT22;8967;47.984;7.842;2023-03-01T00:33:45;0.90;95.10
17697;DHT22;8967;47.984;7.842;2023-03-01T00:36:14;0.90;94.70
17697;DHT22;8967;47.984;7.842;2023-03-01T00:38:45;0.80;94.80
17697;DHT22;8967;47.984;7.842;2023-03-01T00:41:14;0.80;94.80
17697;DHT22;8967;47.984;7.842;2023-03-01T00:43:41;0.80;94.90
17697;DHT22;8967;47.984;7.842;2023-03-01T00:46:10;0.80;95.00
17697;DHT22;8967;47.984;7.842;2023-03-01T00:48:37;0.80;95.00
17697;DHT22;8967;47.984;7.842;2023-03-01T00:51:06;0.80;95.00
17697;DHT22;8967;47.984;7.842;2023-03-01T00:53:35;0.80;95.00
17697;DHT22;8967;47.984;7.842;2023-03-01T00:56:04;0.70;95.00
17697;DHT22;8967;47.984;7.842;2023-03-01T00:58:31;0.70;95.20
17697;DHT22;8967;47.984;7.842;2023-03-01T01:00:58;0.70;95.20
17697;DHT22;8967;47.984;7.842;2023-03-01T01:03:25;0.70;95.40
17697;DHT22;8967;47.984;7.842;2023-03-01T01:05:53;0.70;95.50
17697;DHT22;8967;47.984;7.842;2023-03-01T01:08:20;0.70;95.60
17697;DHT22;8967;47.984;7.842;2023-03-01T01:10:50;0.70;95.60
17697;DHT22;8967;47.984;7.842;2023-03-01T01:13:18;0.70;95.60
17697;DHT22;8967;47.984;7.842;2023-03-01T01:15:47;0.70;95.70
17697;DHT22;8967;47.984;7.842;2023-03-01T01:18:14;0.70;95.60
17697;DHT22;8967;47.984;7.842;2023-03-01T01:20:43;0.70;95.90
17697;DHT22;8967;47.984;7.842;2023-03-01T01:23:10;0.70;95.60
17697;DHT22;8967;47.984;7.842;2023-03-01T01:25:37;0.70;95.70
17697;DHT22;8967;47.984;7.842;2023-03-01T01:28:05;0.70;95.70
17697;DHT22;8967;47.984;7.842;2023-03-01T01:30:32;0.70;95.80
17697;DHT22;8967;47.984;7.842;2023-03-01T01:32:59;0.60;95.90
17697;DHT22;8967;47.984;7.842;2023-03-01T01:35:28;0.60;96.00
17697;DHT22;8967;47.984;7.842;2023-03-01T01:37:55;0.60;96.00
17697;DHT22;8967;47.984;7.842;2023-03-01T01:40:22;0.60;96.10
17697;DHT22;8967;47.984;7.842;2023-03-01T01:42:49;0.60;96.10
17697;DHT22;8967;47.984;7.842;2023-03-01T01:45:28;0.60;96.10
17697;DHT22;8967;47.984;7.842;2023-03-01T01:47:58;0.50;96.30
17697;DHT22;8967;47.984;7.842;2023-03-01T01:50:27;0.50;96.70
17697;DHT22;8967;47.984;7.842;2023-03-01T01:53:07;0.50;96.60
17697;DHT22;8967;47.984;7.842;2023-03-01T01:55:37;0.50;96.70
17697;DHT22;8967;47.984;7.842;2023-03-01T01:58:10;0.50;96.80
17697;DHT22;8967;47.984;7.842;2023-03-01T02:00:39;0.50;96.90
17697;DHT22;8967;47.984;7.842;2023-03-01T02:03:08;0.50;97.00
17697;DHT22;8967;47.984;7.842;2023-03-01T02:05:41;0.40;97.00
17697;DHT22;8967;47.984;7.842;2023-03-01T02:08:12;0.50;97.10
17697;DHT22;8967;47.984;7.842;2023-03-01T02:10:40;0.40;96.80
17697;DHT22;8967;47.984;7.842;2023-03-01T02:13:09;0.40;97.10
17697;DHT22;8967;47.984;7.842;2023-03-01T02:15:40;0.40;97.00
17697;DHT22;8967;47.984;7.842;2023-03-01T02:18:10;0.40;97.10
17697;DHT22;8967;47.984;7.842;2023-03-01T02:20:44;0.40;97.10
17697;DHT22;8967;47.984;7.842;2023-03-01T02:23:15;0.40;97.30
17697;DHT22;8967;47.984;7.842;2023-03-01T02:25:47;0.40;97.20
17697;DHT22;8967;47.984;7.842;2023-03-01T02:28:38;0.40;97.10
17697;DHT22;8967;47.984;7.842;2023-03-01T02:31:07;0.40;97.30
17697;DHT22;8967;47.984;7.842;2023-03-01T02:34:06;0.40;97.50
17697;DHT22;8967;47.984;7.842;2023-03-01T02:36:36;0.40;97.50
17697;DHT22;8967;47.984;7.842;2023-03-01T02:39:06;0.30;97.80
17697;DHT22;8967;47.984;7.842;2023-03-01T02:41:41;0.30;97.70
17697;DHT22;8967;47.984;7.842;2023-03-01T02:44:10;0.30;97.80
17697;DHT22;8967;47.984;7.842;2023-03-01T02:46:43;0.40;97.90
17697;DHT22;8967;47.984;7.842;2023-03-01T02:49:23;0.40;97.80
17697;DHT22;8967;47.984;7.842;2023-03-01T02:52:17;0.40;97.80
17697;DHT22;8967;47.984;7.842;2023-03-01T02:54:51;0.40;97.70
17697;DHT22;8967;47.984;7.842;2023-03-01T02:57:22;0.30;97.70
17697;DHT22;8967;47.984;7.842;2023-03-01T02:59:53;0.30;97.70
17697;DHT22;8967;47.984;7.842;2023-03-01T03:02:23;0.30;97.80
17697;DHT22;8967;47.984;7.842;2023-03-01T03:05:08;0.30;97.70
17697;DHT22;8967;47.984;7.842;2023-03-01T03:07:37;0.30;97.70
17697;DHT22;8967;47.984;7.842;2023-03-01T03:10:07;0.30;97.90
17697;DHT22;8967;47.984;7.842;2023-03-01T03:12:34;0.20;97.80
17697;DHT22;8967;47.984;7.842;2023-03-01T03:15:04;0.20;98.00
17697;DHT22;8967;47.984;7.842;2023-03-01T03:17:35;0.20;97.90
17697;DHT22;8967;47.984;7.842;2023-03-01T03:20:02;0.20;98.10
17697;DHT22;8967;47.984;7.842;2023-03-01T03:22:29;0.20;98.00
17697;DHT22;8967;47.984;7.842;2023-03-01T03:24:56;0.20;98.00
17697;DHT22;8967;47.984;7.842;2023-03-01T03:27:23;0.20;98.10
17697;DHT22;8967;47.984;7.842;2023-03-01T03:29:50;0.20;98.10
17697;DHT22;8967;47.984;7.842;2023-03-01T03:32:18;0.20;98.10
17697;DHT22;8967;47.984;7.842;2023-03-01T03:34:45;0.20;98.20
17697;DHT22;8967;47.984;7.842;2023-03-01T03:37:12;0.20;98.40
17697;DHT22;8967;47.984;7.842;2023-03-01T03:39:53;0.20;98.30
17697;DHT22;8967;47.984;7.842;2023-03-01T03:42:20;0.20;98.40
17697;DHT22;8967;47.984;7.842;2023-03-01T03:44:47;0.20;98.50
17697;DHT22;8967;47.984;7.842;2023-03-01T03:47:14;0.20;98.60
17697;DHT22;8967;47.984;7.842;2023-03-01T03:49:42;0.20;98.50
17697;DHT22;8967;47.984;7.842;2023-03-01T03:52:09;0.30;98.60
17697;DHT22;8967;47.984;7.842;2023-03-01T03:54:39;0.30;98.70
17697;DHT22;8967;47.984;7.842;2023-03-01T03:57:07;0.30;99.10
17697;DHT22;8967;47.984;7.842;2023-03-01T03:59:34;0.30;98.80
17697;DHT22;8967;47.984;7.842;2023-03-01T04:02:00;0.30;98.80
17697;DHT22;8967;47.984;7.842;2023-03-01T04:04:27;0.40;98.80
17697;DHT22;8967;47.984;7.842;2023-03-01T04:06:56;0.40;98.80
17697;DHT22;8967;47.984;7.842;2023-03-01T04:09:22;0.40;99.00
17697;DHT22;8967;47.984;7.842;2023-03-01T04:11:49;0.40;99.00
17697;DHT22;8967;47.984;7.842;2023-03-01T04:14:16;0.40;99.10
17697;DHT22;8967;47.984;7.842;2023-03-01T04:16:43;0.40;99.10
17697;DHT22;8967;47.984;7.842;2023-03-01T04:19:10;0.40;99.40
17697;DHT22;8967;47.984;7.842;2023-03-01T04:21:37;0.50;99.10
17697;DHT22;8967;47.984;7.842;2023-03-01T04:24:06;0.50;99.10
17697;DHT22;8967;47.984;7.842;2023-03-01T04:26:34;0.50;99.20
17697;DHT22;8967;47.984;7.842;2023-03-01T04:29:03;0.50;99.20
17697;DHT22;8967;47.984;7.842;2023-03-01T04:31:30;0.50;99.30
17697;DHT22;8967;47.984;7.842;2023-03-01T04:33:57;0.60;99.50
17697;DHT22;8967;47.984;7.842;2023-03-01T04:36:27;0.60;99.40
17697;DHT22;8967;47.984;7.842;2023-03-01T04:38:55;0.60;99.30
17697;DHT22;8967;47.984;7.842;2023-03-01T04:41:25;0.60;99.20
17697;DHT22;8967;47.984;7.842;2023-03-01T04:43:52;0.60;99.40
17697;DHT22;8967;47.984;7.842;2023-03-01T04:46:20;0.70;99.50
17697;DHT22;8967;47.984;7.842;2023-03-01T04:48:47;0.70;99.30
17697;DHT22;8967;47.984;7.842;2023-03-01T04:51:14;0.70;99.30
17697;DHT22;8967;47.984;7.842;2023-03-01T04:53:42;0.70;99.40
17697;DHT22;8967;47.984;7.842;2023-03-01T04:56:10;0.70;99.30
17697;DHT22;8967;47.984;7.842;2023-03-01T04:58:38;0.70;99.20
17697;DHT22;8967;47.984;7.842;2023-03-01T05:01:09;0.70;99.10
17697;DHT22;8967;47.984;7.842;2023-03-01T05:03:43;0.80;99.20
17697;DHT22;8967;47.984;7.842;2023-03-01T05:06:11;0.80;99.10
17697;DHT22;8967;47.984;7.842;2023-03-01T05:08:38;0.80;99.20
17697;DHT22;8967;47.984;7.842;2023-03-01T05:11:05;0.80;99.10
17697;DHT22;8967;47.984;7.842;2023-03-01T05:13:34;0.80;99.10
17697;DHT22;8967;47.984;7.842;2023-03-01T05:16:05;0.80;99.00
17697;DHT22;8967;47.984;7.842;2023-03-01T05:18:33;0.90;99.10
17697;DHT22;8967;47.984;7.842;2023-03-01T05:21:04;0.90;99.00
17697;DHT22;8967;47.984;7.842;2023-03-01T05:23:31;0.90;99.00
17697;DHT22;8967;47.984;7.842;2023-03-01T05:25:58;0.90;99.20
17697;DHT22;8967;47.984;7.842;2023-03-01T05:28:26;0.90;99.40
17697;DHT22;8967;47.984;7.842;2023-03-01T05:30:53;0.90;99.30
17697;DHT22;8967;47.984;7.842;2023-03-01T05:33:22;0.90;99.30
17697;DHT22;8967;47.984;7.842;2023-03-01T05:35:50;1.00;99.40
17697;DHT22;8967;47.984;7.842;2023-03-01T05:38:18;1.00;99.40
17697;DHT22;8967;47.984;7.842;2023-03-01T05:40:47;1.00;99.40
17697;DHT22;8967;47.984;7.842;2023-03-01T05:43:15;1.00;99.20
17697;DHT22;8967;47.984;7.842;2023-03-01T05:45:43;1.00;99.00
17697;DHT22;8967;47.984;7.842;2023-03-01T05:48:11;1.00;98.80
17697;DHT22;8967;47.984;7.842;2023-03-01T05:50:41;1.10;98.70
17697;DHT22;8967;47.984;7.842;2023-03-01T05:53:11;1.10;98.70
17697;DHT22;8967;47.984;7.842;2023-03-01T05:55:40;1.00;98.60
17697;DHT22;8967;47.984;7.842;2023-03-01T05:58:11;1.10;98.50
17697;DHT22;8967;47.984;7.842;2023-03-01T06:00:42;1.10;98.60
17697;DHT22;8967;47.984;7.842;2023-03-01T06:03:11;1.10;98.50
17697;DHT22;8967;47.984;7.842;2023-03-01T06:05:40;1.10;98.40
17697;DHT22;8967;47.984;7.842;2023-03-01T06:08:07;1.00;98.40
17697;DHT22;8967;47.984;7.842;2023-03-01T06:10:34;1.00;98.30
17697;DHT22;8967;47.984;7.842;2023-03-01T06:13:01;1.10;98.30
17697;DHT22;8967;47.984;7.842;2023-03-01T06:15:27;1.00;98.30
17697;DHT22;8967;47.984;7.842;2023-03-01T06:17:55;1.00;98.20
17697;DHT22;8967;47.984;7.842;2023-03-01T06:20:24;1.00;98.30
17697;DHT22;8967;47.984;7.842;2023-03-01T06:22:53;1.00;98.40
17697;DHT22;8967;47.984;7.842;2023-03-01T06:25:21;1.00;98.50
17697;DHT22;8967;47.984;7.842;2023-03-01T06:27:51;1.00;98.40
17697;DHT22;8967;47.984;7.842;2023-03-01T06:30:20;1.00;98.50
17697;DHT22;8967;47.984;7.842;2023-03-01T06:32:47;1.00;98.20
17697;DHT22;8967;47.984;7.842;2023-03-01T06:35:16;1.00;98.40
17697;DHT22;8967;47.984;7.842;2023-03-01T06:37:44;1.00;98.40
17697;DHT22;8967;47.984;7.842;2023-03-01T06:40:13;1.00;98.40
17697;DHT22;8967;47.984;7.842;2023-03-01T06:42:42;1.00;98.40
17697;DHT22;8967;47.984;7.842;2023-03-01T06:45:10;1.10;98.50
17697;DHT22;8967;47.984;7.842;2023-03-01T06:47:37;1.10;98.60
17697;DHT22;8967;47.984;7.842;2023-03-01T06:50:05;1.10;98.60
17697;DHT22;8967;47.984;7.842;2023-03-01T06:52:35;1.10;98.60
17697;DHT22;8967;47.984;7.842;2023-03-01T06:55:02;1.10;98.60
17697;DHT22;8967;47.984;7.842;2023-03-01T06:57:31;1.10;98.60
17697;DHT22;8967;47.984;7.842;2023-03-01T06:59:57;1.10;98.50
17697;DHT22;8967;47.984;7.842;2023-03-01T07:02:24;1.10;98.50
17697;DHT22;8967;47.984;7.842;2023-03-01T07:04:52;1.10;98.60
17697;DHT22;8967;47.984;7.842;2023-03-01T07:07:19;1.10;98.60
17697;DHT22;8967;47.984;7.842;2023-03-01T07:09:46;1.20;98.60
17697;DHT22;8967;47.984;7.842;2023-03-01T07:12:15;1.20;98.60
17697;DHT22;8967;47.984;7.842;2023-03-01T07:14:44;1.20;98.60
17697;DHT22;8967;47.984;7.842;2023-03-01T07:17:17;1.20;98.60
17697;DHT22;8967;47.984;7.842;2023-03-01T07:19:45;1.20;98.60
17697;DHT22;8967;47.984;7.842;2023-03-01T07:22:11;1.20;98.60
17697;DHT22;8967;47.984;7.842;2023-03-01T07:24:38;1.20;98.60
17697;DHT22;8967;47.984;7.842;2023-03-01T07:27:05;1.20;98.70
17697;DHT22;8967;47.984;7.842;2023-03-01T07:29:32;1.20;98.60
17697;DHT22;8967;47.984;7.842;2023-03-01T07:32:04;1.20;98.70
17697;DHT22;8967;47.984;7.842;2023-03-01T07:34:31;1.20;98.70
17697;DHT22;8967;47.984;7.842;2023-03-01T07:36:58;1.30;98.90
17697;DHT22;8967;47.984;7.842;2023-03-01T07:39:25;1.30;98.70
17697;DHT22;8967;47.984;7.842;2023-03-01T07:41:51;1.30;98.80
17697;DHT22;8967;47.984;7.842;2023-03-01T07:44:21;1.30;98.90
17697;DHT22;8967;47.984;7.842;2023-03-01T07:46:48;1.30;98.90
17697;DHT22;8967;47.984;7.842;2023-03-01T07:49:19;1.30;98.80
17697;DHT22;8967;47.984;7.842;2023-03-01T07:51:46;1.30;98.80
17697;DHT22;8967;47.984;7.842;2023-03-01T07:54:13;1.30;98.80
17697;DHT22;8967;47.984;7.842;2023-03-01T07:56:40;1.30;98.60
17697;DHT22;8967;47.984;7.842;2023-03-01T07:59:06;1.30;98.90
17697;DHT22;8967;47.984;7.842;2023-03-01T08:01:33;1.30;98.80
17697;DHT22;8967;47.984;7.842;2023-03-01T08:04:00;1.30;98.90
17697;DHT22;8967;47.984;7.842;2023-03-01T08:06:29;1.40;98.90
17697;DHT22;8967;47.984;7.842;2023-03-01T08:08:56;1.40;98.90
17697;DHT22;8967;47.984;7.842;2023-03-01T08:11:23;1.40;98.90
17697;DHT22;8967;47.984;7.842;2023-03-01T08:13:50;1.40;98.80
17697;DHT22;8967;47.984;7.842;2023-03-01T08:16:17;1.50;98.90
17697;DHT22;8967;47.984;7.842;2023-03-01T08:18:44;1.50;98.90
17697;DHT22;8967;47.984;7.842;2023-03-01T08:21:13;1.50;98.90
17697;DHT22;8967;47.984;7.842;2023-03-01T08:23:42;1.60;98.90
17697;DHT22;8967;47.984;7.842;2023-03-01T08:26:10;1.60;98.70
17697;DHT22;8967;47.984;7.842;2023-03-01T08:28:38;1.60;98.80
17697;DHT22;8967;47.984;7.842;2023-03-01T08:31:13;1.60;98.80
17697;DHT22;8967;47.984;7.842;2023-03-01T08:33:40;1.70;98.90
17697;DHT22;8967;47.984;7.842;2023-03-01T08:36:10;1.70;99.00
17697;DHT22;8967;47.984;7.842;2023-03-01T08:38:37;1.70;98.70
17697;DHT22;8967;47.984;7.842;2023-03-01T08:41:05;1.70;98.70
17697;DHT22;8967;47.984;7.842;2023-03-01T08:43:32;1.70;98.80
17697;DHT22;8967;47.984;7.842;2023-03-01T08:45:59;1.70;98.90
17697;DHT22;8967;47.984;7.842;2023-03-01T08:48:27;1.80;98.80
17697;DHT22;8967;47.984;7.842;2023-03-01T08:50:57;1.80;98.90
17697;DHT22;8967;47.984;7.842;2023-03-01T08:53:24;1.80;98.70
17697;DHT22;8967;47.984;7.842;2023-03-01T08:55:50;1.80;98.90
17697;DHT22;8967;47.984;7.842;2023-03-01T08:58:22;1.90;98.80
17697;DHT22;8967;47.984;7.842;2023-03-01T09:00:49;1.90;98.80
17697;DHT22;8967;47.984;7.842;2023-03-01T09:03:18;1.90;99.00
17697;DHT22;8967;47.984;7.842;2023-03-01T09:05:45;1.90;99.00
17697;DHT22;8967;47.984;7.842;2023-03-01T09:08:12;2.00;99.00
17697;DHT22;8967;47.984;7.842;2023-03-01T09:10:39;2.00;98.90
17697;DHT22;8967;47.984;7.842;2023-03-01T09:13:06;2.00;98.90
17697;DHT22;8967;47.984;7.842;2023-03-01T09:15:36;2.10;98.80
17697;DHT22;8967;47.984;7.842;2023-03-01T09:18:03;2.10;98.80
17697;DHT22;8967;47.984;7.842;2023-03-01T09:20:31;2.10;98.80
17697;DHT22;8967;47.984;7.842;2023-03-01T09:22:58;2.20;98.90
17697;DHT22;8967;47.984;7.842;2023-03-01T09:25:25;2.20;98.90
17697;DHT22;8967;47.984;7.842;2023-03-01T09:27:52;2.30;98.80
17697;DHT22;8967;47.984;7.842;2023-03-01T09:30:20;2.40;98.90
17697;DHT22;8967;47.984;7.842;2023-03-01T09:32:48;2.40;98.60
17697;DHT22;8967;47.984;7.842;2023-03-01T09:35:15;2.40;98.50
17697;DHT22;8967;47.984;7.842;2023-03-01T09:37:43;2.40;98.50
17697;DHT22;8967;47.984;7.842;2023-03-01T09:40:14;2.50;98.50
17697;DHT22;8967;47.984;7.842;2023-03-01T09:42:48;2.50;98.40
17697;DHT22;8967;47.984;7.842;2023-03-01T09:45:26;2.60;98.40
17697;DHT22;8967;47.984;7.842;2023-03-01T09:47:56;2.60;98.40
17697;DHT22;8967;47.984;7.842;2023-03-01T09:50:23;2.70;98.40
17697;DHT22;8967;47.984;7.842;2023-03-01T09:53:00;2.70;98.30
17697;DHT22;8967;47.984;7.842;2023-03-01T09:55:32;2.70;98.20
17697;DHT22;8967;47.984;7.842;2023-03-01T09:58:06;2.80;98.20
17697;DHT22;8967;47.984;7.842;2023-03-01T10:00:42;2.80;98.10
17697;DHT22;8967;47.984;7.842;2023-03-01T10:03:17;2.80;98.10
17697;DHT22;8967;47.984;7.842;2023-03-01T10:05:59;2.90;98.10
17697;DHT22;8967;47.984;7.842;2023-03-01T10:08:31;3.00;98.10
17697;DHT22;8967;47.984;7.842;2023-03-01T10:11:02;3.00;98.00
17697;DHT22;8967;47.984;7.842;2023-03-01T10:13:36;3.00;97.80
17697;DHT22;8967;47.984;7.842;2023-03-01T10:16:10;3.00;97.70
17697;DHT22;8967;47.984;7.842;2023-03-01T10:18:40;3.10;97.80
17697;DHT22;8967;47.984;7.842;2023-03-01T10:21:14;3.10;97.70
17697;DHT22;8967;47.984;7.842;2023-03-01T10:23:42;3.20;97.70
17697;DHT22;8967;47.984;7.842;2023-03-01T10:26:23;3.30;97.80
17697;DHT22;8967;47.984;7.842;2023-03-01T10:29:01;3.30;97.50
17697;DHT22;8967;47.984;7.842;2023-03-01T10:31:38;3.30;97.90
17697;DHT22;8967;47.984;7.842;2023-03-01T10:34:11;3.40;97.60
17697;DHT22;8967;47.984;7.842;2023-03-01T10:36:39;3.40;97.40
17697;DHT22;8967;47.984;7.842;2023-03-01T10:39:13;3.50;97.40
17697;DHT22;8967;47.984;7.842;2023-03-01T10:41:53;3.60;97.30
17697;DHT22;8967;47.984;7.842;2023-03-01T10:44:40;3.60;97.10
17697;DHT22;8967;47.984;7.842;2023-03-01T10:47:14;3.60;96.90
17697;DHT22;8967;47.984;7.842;2023-03-01T10:49:53;3.60;97.00
17697;DHT22;8967;47.984;7.842;2023-03-01T10:52:22;3.70;97.00
17697;DHT22;8967;47.984;7.842;2023-03-01T10:54:55;3.70;96.90
17697;DHT22;8967;47.984;7.842;2023-03-01T10:57:35;3.70;97.00
17697;DHT22;8967;47.984;7.842;2023-03-01T11:00:24;3.80;96.80
17697;DHT22;8967;47.984;7.842;2023-03-01T11:03:05;3.80;96.50
17697;DHT22;8967;47.984;7.842;2023-03-01T11:05:59;3.80;96.70
17697;DHT22;8967;47.984;7.842;2023-03-01T11:08:31;3.90;96.70
17697;DHT22;8967;47.984;7.842;2023-03-01T11:11:13;3.90;96.70
17697;DHT22;8967;47.984;7.842;2023-03-01T11:13:51;4.00;96.70
17697;DHT22;8967;47.984;7.842;2023-03-01T11:16:27;4.10;96.50
17697;DHT22;8967;47.984;7.842;2023-03-01T11:18:59;4.10;96.40
17697;DHT22;8967;47.984;7.842;2023-03-01T11:21:29;4.20;96.30
17697;DHT22;8967;47.984;7.842;2023-03-01T11:24:00;4.20;96.30
17697;DHT22;8967;47.984;7.842;2023-03-01T11:26:28;4.20;96.10
17697;DHT22;8967;47.984;7.842;2023-03-01T11:29:03;4.30;96.10
17697;DHT22;8967;47.984;7.842;2023-03-01T11:31:32;4.30;96.10
17697;DHT22;8967;47.984;7.842;2023-03-01T11:34:04;4.40;96.00
17697;DHT22;8967;47.984;7.842;2023-03-01T11:36:41;4.40;96.00
17697;DHT22;8967;47.984;7.842;2023-03-01T11:39:18;4.40;95.90
17697;DHT22;8967;47.984;7.842;2023-03-01T11:41:49;4.50;95.80
17697;DHT22;8967;47.984;7.842;2023-03-01T11:44:23;4.50;95.60
17697;DHT22;8967;47.984;7.842;2023-03-01T11:47:08;4.50;95.50
17697;DHT22;8967;47.984;7.842;2023-03-01T11:49:53;4.60;95.50
17697;DHT22;8967;47.984;7.842;2023-03-01T11:52:36;4.60;95.50
17697;DHT22;8967;47.984;7.842;2023-03-01T11:55:17;4.60;95.40
17697;DHT22;8967;47.984;7.842;2023-03-01T11:57:57;4.60;95.40
17697;DHT22;8967;47.984;7.842;2023-03-01T12:00:38;4.70;95.30
17697;DHT22;8967;47.984;7.842;2023-03-01T12:03:23;4.70;95.10
17697;DHT22;8967;47.984;7.842;2023-03-01T12:06:05;4.70;95.10
17697;DHT22;8967;47.984;7.842;2023-03-01T12:08:41;4.70;95.10
17697;DHT22;8967;47.984;7.842;2023-03-01T12:11:18;4.70;94.90
17697;DHT22;8967;47.984;7.842;2023-03-01T12:14:09;4.80;95.00
17697;DHT22;8967;47.984;7.842;2023-03-01T12:17:05;4.80;94.80
17697;DHT22;8967;47.984;7.842;2023-03-01T12:19:44;4.80;94.70
17697;DHT22;8967;47.984;7.842;2023-03-01T12:22:27;4.80;94.60
17697;DHT22;8967;47.984;7.842;2023-03-01T12:25:10;4.90;94.60
17697;DHT22;8967;47.984;7.842;2023-03-01T12:28:24;4.90;94.60
17697;DHT22;8967;47.984;7.842;2023-03-01T12:31:04;4.90;94.70
17697;DHT22;8967;47.984;7.842;2023-03-01T12:33:39;4.90;94.50
17697;DHT22;8967;47.984;7.842;2023-03-01T12:36:35;4.90;94.80
17697;DHT22;8967;47.984;7.842;2023-03-01T12:39:19;4.90;94.40
17697;DHT22;8967;47.984;7.842;2023-03-01T12:41:54;5.00;94.50
17697;DHT22;8967;47.984;7.842;2023-03-01T12:44:33;5.00;94.50
17697;DHT22;8967;47.984;7.842;2023-03-01T12:47:13;5.00;94.20
17697;DHT22;8967;47.984;7.842;2023-03-01T12:49:46;5.10;94.10
17697;DHT22;8967;47.984;7.842;2023-03-01T12:52:16;5.10;94.00
17697;DHT22;8967;47.984;7.842;2023-03-01T12:54:53;5.20;93.90
17697;DHT22;8967;47.984;7.842;2023-03-01T12:57:30;5.20;93.20
17697;DHT22;8967;47.984;7.842;2023-03-01T13:00:17;5.20;93.20
17697;DHT22;8967;47.984;7.842;2023-03-01T13:02:54;5.30;93.00
17697;DHT22;8967;47.984;7.842;2023-03-01T13:05:34;5.40;92.00
17697;DHT22;8967;47.984;7.842;2023-03-01T13:08:10;5.50;92.20
17697;DHT22;8967;47.984;7.842;2023-03-01T13:10:42;5.50;91.90
17697;DHT22;8967;47.984;7.842;2023-03-01T13:13:19;5.60;91.80
17697;DHT22;8967;47.984;7.842;2023-03-01T13:15:49;5.60;91.20
17697;DHT22;8967;47.984;7.842;2023-03-01T13:18:32;5.70;90.90
17697;DHT22;8967;47.984;7.842;2023-03-01T13:21:02;5.70;90.10
17697;DHT22;8967;47.984;7.842;2023-03-01T13:23:34;5.80;90.20
17697;DHT22;8967;47.984;7.842;2023-03-01T13:26:10;5.80;89.70
17697;DHT22;8967;47.984;7.842;2023-03-01T13:28:55;5.90;89.60
17697;DHT22;8967;47.984;7.842;2023-03-01T13:34:47;6.00;89.60
17697;DHT22;8967;47.984;7.842;2023-03-01T13:37:25;6.00;88.00
17697;DHT22;8967;47.984;7.842;2023-03-01T13:39:59;6.00;88.00
17697;DHT22;8967;47.984;7.842;2023-03-01T13:42:35;6.00;88.00
17697;DHT22;8967;47.984;7.842;2023-03-01T13:45:14;6.10;87.50
17697;DHT22;8967;47.984;7.842;2023-03-01T13:47:42;6.10;86.80
17697;DHT22;8967;47.984;7.842;2023-03-01T13:50:18;6.10;86.60
17697;DHT22;8967;47.984;7.842;2023-03-01T13:52:50;6.10;86.80
17697;DHT22;8967;47.984;7.842;2023-03-01T13:55:21;6.10;86.90
17697;DHT22;8967;47.984;7.842;2023-03-01T13:57:53;6.20;86.60
17697;DHT22;8967;47.984;7.842;2023-03-01T14:00:34;6.20;86.80
17697;DHT22;8967;47.984;7.842;2023-03-01T14:03:09;6.20;86.50
17697;DHT22;8967;47.984;7.842;2023-03-01T14:05:37;6.20;86.60
17697;DHT22;8967;47.984;7.842;2023-03-01T14:08:05;6.30;86.70
17697;DHT22;8967;47.984;7.842;2023-03-01T14:10:54;6.30;86.60
17697;DHT22;8967;47.984;7.842;2023-03-01T14:13:32;6.30;85.60
17697;DHT22;8967;47.984;7.842;2023-03-01T14:16:20;6.30;85.80
17697;DHT22;8967;47.984;7.842;2023-03-01T14:19:00;6.40;86.10
17697;DHT22;8967;47.984;7.842;2023-03-01T14:21:30;6.40;86.10
17697;DHT22;8967;47.984;7.842;2023-03-01T14:23:58;6.50;86.00
17697;DHT22;8967;47.984;7.842;2023-03-01T14:26:25;6.50;86.00
17697;DHT22;8967;47.984;7.842;2023-03-01T14:28:52;6.50;85.90
17697;DHT22;8967;47.984;7.842;2023-03-01T14:31:34;6.40;85.80
17697;DHT22;8967;47.984;7.842;2023-03-01T14:34:01;6.50;85.20
17697;DHT22;8967;47.984;7.842;2023-03-01T14:36:30;6.50;85.20
17697;DHT22;8967;47.984;7.842;2023-03-01T14:38:58;6.60;85.00
17697;DHT22;8967;47.984;7.842;2023-03-01T14:41:32;6.50;84.50
17697;DHT22;8967;47.984;7.842;2023-03-01T14:44:02;6.60;83.80
17697;DHT22;8967;47.984;7.842;2023-03-01T14:46:33;6.60;83.90
17697;DHT22;8967;47.984;7.842;2023-03-01T14:49:03;6.60;84.00
17697;DHT22;8967;47.984;7.842;2023-03-01T14:51:34;6.60;84.00
17697;DHT22;8967;47.984;7.842;2023-03-01T14:54:01;6.60;84.00
17697;DHT22;8967;47.984;7.842;2023-03-01T14:56:43;6.50;84.00
17697;DHT22;8967;47.984;7.842;2023-03-01T14:59:11;6.50;84.10
17697;DHT22;8967;47.984;7.842;2023-03-01T15:01:41;6.50;84.30
17697;DHT22;8967;47.984;7.842;2023-03-01T15:04:11;6.50;84.40
17697;DHT22;8967;47.984;7.842;2023-03-01T15:06:39;6.50;84.40
17697;DHT22;8967;47.984;7.842;2023-03-01T15:09:14;6.40;84.40
17697;DHT22;8967;47.984;7.842;2023-03-01T15:11:42;6.50;84.70
17697;DHT22;8967;47.984;7.842;2023-03-01T15:14:38;6.50;84.70
17697;DHT22;8967;47.984;7.842;2023-03-01T15:17:21;6.40;84.70
17697;DHT22;8967;47.984;7.842;2023-03-01T15:19:50;6.40;84.90
17697;DHT22;8967;47.984;7.842;2023-03-01T15:22:17;6.40;85.00
17697;DHT22;8967;47.984;7.842;2023-03-01T15:24:47;6.40;85.20
17697;DHT22;8967;47.984;7.842;2023-03-01T15:27:16;6.40;85.20
17697;DHT22;8967;47.984;7.842;2023-03-01T15:29:49;6.40;85.10
17697;DHT22;8967;47.984;7.842;2023-03-01T15:32:29;6.40;85.20
17697;DHT22;8967;47.984;7.842;2023-03-01T15:35:00;6.40;85.50
17697;DHT22;8967;47.984;7.842;2023-03-01T15:37:40;6.40;85.70
17697;DHT22;8967;47.984;7.842;2023-03-01T15:40:21;6.40;86.10
17697;DHT22;8967;47.984;7.842;2023-03-01T15:42:50;6.40;86.10
17697;DHT22;8967;47.984;7.842;2023-03-01T15:45:22;6.50;86.10
17697;DHT22;8967;47.984;7.842;2023-03-01T15:47:53;6.50;86.30
17697;DHT22;8967;47.984;7.842;2023-03-01T15:50:27;6.50;86.40
17697;DHT22;8967;47.984;7.842;2023-03-01T15:52:56;6.50;86.50
17697;DHT22;8967;47.984;7.842;2023-03-01T15:55:28;6.40;86.30
17697;DHT22;8967;47.984;7.842;2023-03-01T15:58:00;6.50;86.30
17697;DHT22;8967;47.984;7.842;2023-03-01T16:00:28;6.50;86.40
17697;DHT22;8967;47.984;7.842;2023-03-01T16:02:57;6.50;86.20
17697;DHT22;8967;47.984;7.842;2023-03-01T16:05:28;6.50;86.20
17697;DHT22;8967;47.984;7.842;2023-03-01T16:07:58;6.40;86.20
17697;DHT22;8967;47.984;7.842;2023-03-01T16:10:26;6.40;86.20
17697;DHT22;8967;47.984;7.842;2023-03-01T16:12:54;6.40;86.20
17697;DHT22;8967;47.984;7.842;2023-03-01T16:15:22;6.40;86.30
17697;DHT22;8967;47.984;7.842;2023-03-01T16:17:50;6.40;86.40
17697;DHT22;8967;47.984;7.842;2023-03-01T16:20:22;6.40;86.60
17697;DHT22;8967;47.984;7.842;2023-03-01T16:22:49;6.40;86.60
17697;DHT22;8967;47.984;7.842;2023-03-01T16:25:18;6.40;86.60
17697;DHT22;8967;47.984;7.842;2023-03-01T16:27:49;6.30;86.50
17697;DHT22;8967;47.984;7.842;2023-03-01T16:30:20;6.30;86.50
17697;DHT22;8967;47.984;7.842;2023-03-01T16:32:48;6.30;86.60